sensor_id;sensor_type;location;lat;lon;timestamp;pressure;altitude;pressure_sealevel;temperature;humidity
10466;BME280;5280;42.600;23.556;2023-08-17T00:01:15;93550.16;;;21.47;71.44
10466;BME280;5280;42.600;23.556;2023-08-17T00:03:42;93529.84;;;21.30;70.82
10466;BME280;5280;42.600;23.556;2023-08-17T00:06:09;93545.69;;;21.40;71.94
10466;BME280;5280;42.600;23.556;2023-08-17T00:08:36;93570.75;;;21.40;72.44
10466;BME280;5280;42.600;23.556;2023-08-17T00:11:04;93544.13;;;21.31;72.88
10466;BME280;5280;42.600;23.556;2023-08-17T00:13:31;93555.41;;;21.26;73.37
10466;BME280;5280;42.600;23.556;2023-08-17T00:15:57;93535.34;;;21.14;72.21
10466;BME280;5280;42.600;23.556;2023-08-17T00:18:24;93550.75;;;21.20;72.99
10466;BME280;5280;42.600;23.556;2023-08-17T00:20:51;93551.31;;;21.16;74.50
10466;BME280;5280;42.600;23.556;2023-08-17T00:23:18;93549.13;;;21.11;75.11
10466;BME280;5280;42.600;23.556;2023-08-17T00:25:46;93546.16;;;21.06;75.18
10466;BME280;5280;42.600;23.556;2023-08-17T00:28:14;93542.19;;;20.94;76.31
10466;BME280;5280;42.600;23.556;2023-08-17T00:30:41;93539.09;;;20.82;76.08
10466;BME280;5280;42.600;23.556;2023-08-17T00:33:08;93533.25;;;20.79;76.46
10466;BME280;5280;42.600;23.556;2023-08-17T00:35:35;93538.28;;;20.82;76.21
10466;BME280;5280;42.600;23.556;2023-08-17T00:38:02;93526.94;;;20.72;76.59
10466;BME280;5280;42.600;23.556;2023-08-17T00:40:29;93533.78;;;20.74;77.55
10466;BME280;5280;42.600;23.556;2023-08-17T00:42:56;93538.13;;;20.75;77.64
10466;BME280;5280;42.600;23.556;2023-08-17T00:45:24;93531.81;;;20.68;77.84
10466;BME280;5280;42.600;23.556;2023-08-17T00:47:51;93482.19;;;20.33;77.28
10466;BME280;5280;42.600;23.556;2023-08-17T00:50:18;93516.22;;;20.63;77.11
10466;BME280;5280;42.600;23.556;2023-08-17T00:52:45;93526.56;;;20.75;76.08
10466;BME280;5280;42.600;23.556;2023-08-17T00:55:12;93471.28;;;20.35;76.46
10466;BME280;5280;42.600;23.556;2023-08-17T00:57:41;93524.88;;;20.74;76.77
10466;BME280;5280;42.600;23.556;2023-08-17T01:00:11;93530.22;;;20.82;77.81
10466;BME280;5280;42.600;23.556;2023-08-17T01:02:40;93524.16;;;20.80;77.74
10466;BME280;5280;42.600;23.556;2023-08-17T01:05:09;93522.88;;;20.76;77.84
10466;BME280;5280;42.600;23.556;2023-08-17T01:07:36;93481.72;;;20.52;77.58
10466;BME280;5280;42.600;23.556;2023-08-17T01:10:04;93526.19;;;20.78;76.97
10466;BME280;5280;42.600;23.556;2023-08-17T01:12:38;93522.03;;;20.75;77.38
10466;BME280;5280;42.600;23.556;2023-08-17T01:15:12;93509.47;;;20.68;78.03
10466;BME280;5280;42.600;23.556;2023-08-17T01:17:44;93520.22;;;20.68;77.43
10466;BME280;5280;42.600;23.556;2023-08-17T01:20:14;93512.41;;;20.58;78.42
10466;BME280;5280;42.600;23.556;2023-08-17T01:22:45;93518.28;;;20.61;79.08
10466;BME280;5280;42.600;23.556;2023-08-17T01:25:14;93502.38;;;20.52;78.80
10466;BME280;5280;42.600;23.556;2023-08-17T01:27:43;93519.63;;;20.57;78.96
10466;BME280;5280;42.600;23.556;2023-08-17T01:30:12;93518.44;;;20.60;79.11
10466;BME280;5280;42.600;23.556;2023-08-17T01:32:44;93524.19;;;20.57;78.91
10466;BME280;5280;42.600;23.556;2023-08-17T01:35:21;93517.06;;;20.41;80.12
10466;BME280;5280;42.600;23.556;2023-08-17T01:37:53;93514.00;;;20.44;79.67
10466;BME280;5280;42.600;23.556;2023-08-17T01:40:24;93464.81;;;20.13;79.92
10466;BME280;5280;42.600;23.556;2023-08-17T01:42:54;93501.28;;;20.38;79.58
10466;BME280;5280;42.600;23.556;2023-08-17T01:45:22;93525.59;;;20.45;80.68
10466;BME280;5280;42.600;23.556;2023-08-17T01:47:49;93508.03;;;20.34;80.07
10466;BME280;5280;42.600;23.556;2023-08-17T01:50:16;93505.50;;;20.33;79.58
10466;BME280;5280;42.600;23.556;2023-08-17T01:52:45;93524.91;;;20.43;79.62
10466;BME280;5280;42.600;23.556;2023-08-17T01:55:12;93498.16;;;20.27;79.86
10466;BME280;5280;42.600;23.556;2023-08-17T01:57:40;93515.53;;;20.39;79.40
10466;BME280;5280;42.600;23.556;2023-08-17T02:00:08;93522.13;;;20.36;79.51
10466;BME280;5280;42.600;23.556;2023-08-17T02:02:36;93514.59;;;20.32;79.20
10466;BME280;5280;42.600;23.556;2023-08-17T02:05:03;93513.06;;;20.29;79.32
10466;BME280;5280;42.600;23.556;2023-08-17T02:07:30;93520.28;;;20.29;79.33
10466;BME280;5280;42.600;23.556;2023-08-17T02:09:57;93518.13;;;20.32;79.22
10466;BME280;5280;42.600;23.556;2023-08-17T02:12:24;93499.50;;;20.23;79.03
10466;BME280;5280;42.600;23.556;2023-08-17T02:14:52;93517.91;;;20.34;78.34
10466;BME280;5280;42.600;23.556;2023-08-17T02:17:19;93519.78;;;20.33;78.32
10466;BME280;5280;42.600;23.556;2023-08-17T02:19:47;93523.66;;;20.31;78.41
10466;BME280;5280;42.600;23.556;2023-08-17T02:22:13;93509.91;;;20.17;78.44
10466;BME280;5280;42.600;23.556;2023-08-17T02:24:40;93517.63;;;20.20;79.85
10466;BME280;5280;42.600;23.556;2023-08-17T02:27:09;93515.19;;;20.11;79.00
10466;BME280;5280;42.600;23.556;2023-08-17T02:29:36;93506.81;;;20.06;78.41
10466;BME280;5280;42.600;23.556;2023-08-17T02:32:04;93503.97;;;19.99;78.92
10466;BME280;5280;42.600;23.556;2023-08-17T02:34:31;93514.88;;;20.06;78.00
10466;BME280;5280;42.600;23.556;2023-08-17T02:36:58;93504.66;;;20.01;78.95
10466;BME280;5280;42.600;23.556;2023-08-17T02:39:26;93506.66;;;19.99;79.64
10466;BME280;5280;42.600;23.556;2023-08-17T02:41:52;93510.66;;;20.03;78.65
10466;BME280;5280;42.600;23.556;2023-08-17T02:44:20;93503.50;;;19.96;79.24
10466;BME280;5280;42.600;23.556;2023-08-17T02:46:47;93497.13;;;19.97;78.95
10466;BME280;5280;42.600;23.556;2023-08-17T02:49:15;93504.81;;;20.00;78.29
10466;BME280;5280;42.600;23.556;2023-08-17T02:51:42;93483.56;;;19.90;79.45
10466;BME280;5280;42.600;23.556;2023-08-17T02:54:08;93495.28;;;19.97;78.55
10466;BME280;5280;42.600;23.556;2023-08-17T02:56:35;93492.63;;;19.89;79.05
10466;BME280;5280;42.600;23.556;2023-08-17T02:59:02;93499.63;;;19.98;77.93
10466;BME280;5280;42.600;23.556;2023-08-17T03:01:28;93477.41;;;19.82;76.99
10466;BME280;5280;42.600;23.556;2023-08-17T03:03:56;93501.16;;;19.93;75.73
10466;BME280;5280;42.600;23.556;2023-08-17T03:06:24;93497.47;;;19.94;76.23
10466;BME280;5280;42.600;23.556;2023-08-17T03:08:51;93495.16;;;19.91;76.48
10466;BME280;5280;42.600;23.556;2023-08-17T03:11:20;93500.69;;;19.89;77.01
10466;BME280;5280;42.600;23.556;2023-08-17T03:13:47;93508.25;;;19.86;75.69
10466;BME280;5280;42.600;23.556;2023-08-17T03:16:14;93502.88;;;19.77;76.65
10466;BME280;5280;42.600;23.556;2023-08-17T03:18:41;93493.03;;;19.70;76.83
10466;BME280;5280;42.600;23.556;2023-08-17T03:21:08;93495.72;;;19.70;76.65
10466;BME280;5280;42.600;23.556;2023-08-17T03:23:36;93510.47;;;19.74;75.94
10466;BME280;5280;42.600;23.556;2023-08-17T03:26:03;93513.81;;;19.76;72.69
10466;BME280;5280;42.600;23.556;2023-08-17T03:28:30;93487.56;;;19.55;74.84
10466;BME280;5280;42.600;23.556;2023-08-17T03:30:57;93513.66;;;19.69;74.65
10466;BME280;5280;42.600;23.556;2023-08-17T03:33:24;93504.66;;;19.62;74.87
10466;BME280;5280;42.600;23.556;2023-08-17T03:35:50;93504.81;;;19.61;76.12
10466;BME280;5280;42.600;23.556;2023-08-17T03:38:17;93507.81;;;19.58;75.15
10466;BME280;5280;42.600;23.556;2023-08-17T03:40:46;93504.00;;;19.52;74.68
10466;BME280;5280;42.600;23.556;2023-08-17T03:43:12;93522.75;;;19.60;75.00
10466;BME280;5280;42.600;23.556;2023-08-17T03:45:40;93513.03;;;19.59;76.15
10466;BME280;5280;42.600;23.556;2023-08-17T03:48:07;93503.34;;;19.50;76.01
10466;BME280;5280;42.600;23.556;2023-08-17T03:50:34;93517.75;;;19.57;75.26
10466;BME280;5280;42.600;23.556;2023-08-17T03:53:01;93514.03;;;19.58;74.77
10466;BME280;5280;42.600;23.556;2023-08-17T03:55:28;93521.44;;;19.56;76.09
10466;BME280;5280;42.600;23.556;2023-08-17T03:57:56;93526.94;;;19.55;75.60
10466;BME280;5280;42.600;23.556;2023-08-17T04:00:23;93514.91;;;19.43;76.29
10466;BME280;5280;42.600;23.556;2023-08-17T04:02:49;93526.09;;;19.54;75.79
10466;BME280;5280;42.600;23.556;2023-08-17T04:05:16;93532.66;;;19.52;75.81
10466;BME280;5280;42.600;23.556;2023-08-17T04:07:43;93521.06;;;19.43;76.61
10466;BME280;5280;42.600;23.556;2023-08-17T04:10:10;93528.13;;;19.52;75.93
10466;BME280;5280;42.600;23.556;2023-08-17T04:12:37;93522.78;;;19.52;74.98
10466;BME280;5280;42.600;23.556;2023-08-17T04:15:06;93528.94;;;19.53;76.25
10466;BME280;5280;42.600;23.556;2023-08-17T04:17:33;93447.78;;;19.04;77.01
10466;BME280;5280;42.600;23.556;2023-08-17T04:19:59;93513.56;;;19.47;77.27
10466;BME280;5280;42.600;23.556;2023-08-17T04:22:26;93531.16;;;19.57;77.30
10466;BME280;5280;42.600;23.556;2023-08-17T04:24:53;93518.22;;;19.53;78.46
10466;BME280;5280;42.600;23.556;2023-08-17T04:27:19;93508.34;;;19.53;78.55
10466;BME280;5280;42.600;23.556;2023-08-17T04:29:46;93515.06;;;19.57;78.36
10466;BME280;5280;42.600;23.556;2023-08-17T04:32:15;93511.84;;;19.62;78.19
10466;BME280;5280;42.600;23.556;2023-08-17T04:34:42;93504.34;;;19.49;79.38
10466;BME280;5280;42.600;23.556;2023-08-17T04:37:08;93527.53;;;19.81;78.06
10466;BME280;5280;42.600;23.556;2023-08-17T04:39:35;93510.09;;;19.85;77.81
10466;BME280;5280;42.600;23.556;2023-08-17T04:42:02;93507.50;;;20.00;78.03
10466;BME280;5280;42.600;23.556;2023-08-17T04:44:30;93525.53;;;20.22;77.14
10466;BME280;5280;42.600;23.556;2023-08-17T04:46:56;93503.69;;;20.25;77.16
10466;BME280;5280;42.600;23.556;2023-08-17T04:49:24;93476.47;;;20.28;76.49
10466;BME280;5280;42.600;23.556;2023-08-17T04:51:51;93516.06;;;20.65;76.30
10466;BME280;5280;42.600;23.556;2023-08-17T04:54:18;93514.97;;;20.74;75.64
10466;BME280;5280;42.600;23.556;2023-08-17T04:56:46;93512.00;;;20.92;75.44
10466;BME280;5280;42.600;23.556;2023-08-17T04:59:13;93515.53;;;21.07;74.06
10466;BME280;5280;42.600;23.556;2023-08-17T05:01:39;93512.00;;;21.15;73.67
10466;BME280;5280;42.600;23.556;2023-08-17T05:04:06;93490.94;;;21.18;72.78
10466;BME280;5280;42.600;23.556;2023-08-17T05:06:34;93508.22;;;21.38;72.90
10466;BME280;5280;42.600;23.556;2023-08-17T05:09:02;93505.38;;;21.40;72.28
10466;BME280;5280;42.600;23.556;2023-08-17T05:11:30;93517.91;;;21.62;70.24
10466;BME280;5280;42.600;23.556;2023-08-17T05:13:57;93512.91;;;21.74;71.72
10466;BME280;5280;42.600;23.556;2023-08-17T05:16:23;93510.94;;;21.82;71.45
10466;BME280;5280;42.600;23.556;2023-08-17T05:18:50;93510.97;;;21.97;71.42
10466;BME280;5280;42.600;23.556;2023-08-17T05:21:18;93503.81;;;22.04;69.06
10466;BME280;5280;42.600;23.556;2023-08-17T05:23:46;93517.09;;;22.20;67.56
10466;BME280;5280;42.600;23.556;2023-08-17T05:26:13;93517.13;;;22.42;68.58
10466;BME280;5280;42.600;23.556;2023-08-17T05:28:40;93492.34;;;22.46;69.90
10466;BME280;5280;42.600;23.556;2023-08-17T05:31:08;93523.94;;;22.73;69.43
10466;BME280;5280;42.600;23.556;2023-08-17T05:33:35;93516.50;;;22.97;69.15
10466;BME280;5280;42.600;23.556;2023-08-17T05:36:02;93507.91;;;23.08;69.32
10466;BME280;5280;42.600;23.556;2023-08-17T05:38:29;93501.41;;;23.24;69.57
10466;BME280;5280;42.600;23.556;2023-08-17T05:40:58;93518.47;;;23.52;68.58
10466;BME280;5280;42.600;23.556;2023-08-17T05:43:25;93515.47;;;23.68;69.17
10466;BME280;5280;42.600;23.556;2023-08-17T05:45:52;93513.03;;;23.73;68.08
10466;BME280;5280;42.600;23.556;2023-08-17T05:48:19;93522.88;;;23.87;67.06
10466;BME280;5280;42.600;23.556;2023-08-17T05:50:46;93507.56;;;23.94;65.97
10466;BME280;5280;42.600;23.556;2023-08-17T05:53:13;93522.00;;;24.15;66.73
10466;BME280;5280;42.600;23.556;2023-08-17T05:55:40;93494.53;;;24.05;65.98
10466;BME280;5280;42.600;23.556;2023-08-17T05:58:08;93506.06;;;24.20;64.70
10466;BME280;5280;42.600;23.556;2023-08-17T06:00:35;93532.53;;;24.37;63.17
10466;BME280;5280;42.600;23.556;2023-08-17T06:03:01;93522.59;;;24.51;63.83
10466;BME280;5280;42.600;23.556;2023-08-17T06:05:28;93521.19;;;24.55;64.64
10466;BME280;5280;42.600;23.556;2023-08-17T06:07:55;93522.47;;;24.72;62.87
10466;BME280;5280;42.600;23.556;2023-08-17T06:10:22;93506.03;;;24.67;63.08
10466;BME280;5280;42.600;23.556;2023-08-17T06:12:51;93521.03;;;24.76;63.82
10466;BME280;5280;42.600;23.556;2023-08-17T06:15:19;93511.03;;;24.70;64.19
10466;BME280;5280;42.600;23.556;2023-08-17T06:17:46;93483.78;;;24.65;65.88
10466;BME280;5280;42.600;23.556;2023-08-17T06:20:15;93513.59;;;24.92;65.97
10466;BME280;5280;42.600;23.556;2023-08-17T06:22:43;93525.94;;;25.14;64.86
10466;BME280;5280;42.600;23.556;2023-08-17T06:25:10;93522.81;;;25.23;64.70
10466;BME280;5280;42.600;23.556;2023-08-17T06:27:37;93519.28;;;25.29;62.52
10466;BME280;5280;42.600;23.556;2023-08-17T06:30:04;93529.91;;;25.44;64.83
10466;BME280;5280;42.600;23.556;2023-08-17T06:32:33;93523.69;;;25.57;63.23
10466;BME280;5280;42.600;23.556;2023-08-17T06:35:00;93530.59;;;25.59;61.99
10466;BME280;5280;42.600;23.556;2023-08-17T06:37:26;93510.16;;;25.57;61.33
10466;BME280;5280;42.600;23.556;2023-08-17T06:39:53;93538.25;;;25.89;60.35
10466;BME280;5280;42.600;23.556;2023-08-17T06:42:20;93541.78;;;25.96;60.16
10466;BME280;5280;42.600;23.556;2023-08-17T06:44:47;93546.16;;;25.97;58.06
10466;BME280;5280;42.600;23.556;2023-08-17T06:47:13;93539.06;;;25.96;58.32
10466;BME280;5280;42.600;23.556;2023-08-17T06:49:41;93536.16;;;25.97;59.01
10466;BME280;5280;42.600;23.556;2023-08-17T06:52:08;93547.00;;;25.97;56.62
10466;BME280;5280;42.600;23.556;2023-08-17T06:54:35;93539.06;;;26.02;56.63
10466;BME280;5280;42.600;23.556;2023-08-17T06:57:02;93539.03;;;26.15;56.03
10466;BME280;5280;42.600;23.556;2023-08-17T06:59:29;93523.00;;;26.14;56.16
10466;BME280;5280;42.600;23.556;2023-08-17T07:01:56;93532.81;;;26.22;55.19
10466;BME280;5280;42.600;23.556;2023-08-17T07:04:23;93534.66;;;26.28;54.00
10466;BME280;5280;42.600;23.556;2023-08-17T07:06:51;93486.94;;;26.13;54.60
10466;BME280;5280;42.600;23.556;2023-08-17T07:09:17;93515.25;;;26.37;52.84
10466;BME280;5280;42.600;23.556;2023-08-17T07:11:46;93525.63;;;26.53;52.34
10466;BME280;5280;42.600;23.556;2023-08-17T07:14:13;93533.09;;;26.65;51.96
10466;BME280;5280;42.600;23.556;2023-08-17T07:16:39;93530.56;;;26.70;51.95
10466;BME280;5280;42.600;23.556;2023-08-17T07:19:07;93537.19;;;26.87;50.91
10466;BME280;5280;42.600;23.556;2023-08-17T07:21:33;93525.69;;;26.85;50.64
10466;BME280;5280;42.600;23.556;2023-08-17T07:24:11;93535.69;;;26.91;51.00
10466;BME280;5280;42.600;23.556;2023-08-17T07:26:38;93531.25;;;27.03;49.84
10466;BME280;5280;42.600;23.556;2023-08-17T07:29:05;93526.59;;;27.10;49.44
10466;BME280;5280;42.600;23.556;2023-08-17T07:31:32;93534.25;;;27.26;49.91
10466;BME280;5280;42.600;23.556;2023-08-17T07:33:59;93524.13;;;27.40;49.90
10466;BME280;5280;42.600;23.556;2023-08-17T07:36:26;93528.88;;;27.51;49.41
10466;BME280;5280;42.600;23.556;2023-08-17T07:38:52;93532.75;;;27.62;47.60
10466;BME280;5280;42.600;23.556;2023-08-17T07:41:20;93506.34;;;27.44;46.35
10466;BME280;5280;42.600;23.556;2023-08-17T07:43:47;93508.59;;;27.54;46.90
10466;BME280;5280;42.600;23.556;2023-08-17T07:46:14;93532.81;;;27.80;46.65
10466;BME280;5280;42.600;23.556;2023-08-17T07:48:40;93502.59;;;27.70;47.37
10466;BME280;5280;42.600;23.556;2023-08-17T07:51:07;93525.00;;;27.90;46.87
10466;BME280;5280;42.600;23.556;2023-08-17T07:53:34;93538.69;;;28.02;47.16
10466;BME280;5280;42.600;23.556;2023-08-17T07:56:01;93517.56;;;28.04;46.33
10466;BME280;5280;42.600;23.556;2023-08-17T07:58:29;93523.09;;;28.15;45.52
10466;BME280;5280;42.600;23.556;2023-08-17T08:00:56;93523.97;;;28.34;45.91
10466;BME280;5280;42.600;23.556;2023-08-17T08:03:22;93469.69;;;28.03;45.30
10466;BME280;5280;42.600;23.556;2023-08-17T08:05:49;93505.75;;;28.53;45.59
10466;BME280;5280;42.600;23.556;2023-08-17T08:08:16;93490.66;;;28.57;44.75
10466;BME280;5280;42.600;23.556;2023-08-17T08:10:43;93487.59;;;28.65;44.94
10466;BME280;5280;42.600;23.556;2023-08-17T08:13:10;93501.59;;;28.87;44.50
10466;BME280;5280;42.600;23.556;2023-08-17T08:15:38;93506.34;;;28.91;45.04
10466;BME280;5280;42.600;23.556;2023-08-17T08:18:05;93507.59;;;29.07;45.19
10466;BME280;5280;42.600;23.556;2023-08-17T08:20:31;93502.56;;;29.22;45.08
10466;BME280;5280;42.600;23.556;2023-08-17T08:22:58;93499.94;;;29.34;44.53
10466;BME280;5280;42.600;23.556;2023-08-17T08:25:25;93496.25;;;29.40;43.21
10466;BME280;5280;42.600;23.556;2023-08-17T08:27:52;93492.75;;;29.63;43.83
10466;BME280;5280;42.600;23.556;2023-08-17T08:30:19;93500.34;;;29.72;42.96
10466;BME280;5280;42.600;23.556;2023-08-17T08:32:47;93479.38;;;29.73;43.00
10466;BME280;5280;42.600;23.556;2023-08-17T08:35:14;93496.91;;;29.77;38.35
10466;BME280;5280;42.600;23.556;2023-08-17T08:37:40;93477.13;;;29.81;37.10
10466;BME280;5280;42.600;23.556;2023-08-17T08:40:11;93489.97;;;30.04;37.32
10466;BME280;5280;42.600;23.556;2023-08-17T08:42:38;93474.69;;;30.03;37.52
10466;BME280;5280;42.600;23.556;2023-08-17T08:45:05;93483.78;;;30.32;37.41
10466;BME280;5280;42.600;23.556;2023-08-17T08:47:34;93484.97;;;30.36;36.22
10466;BME280;5280;42.600;23.556;2023-08-17T08:50:03;93481.78;;;30.27;36.99
10466;BME280;5280;42.600;23.556;2023-08-17T08:52:33;93469.94;;;30.33;36.36
10466;BME280;5280;42.600;23.556;2023-08-17T08:55:05;93486.88;;;30.47;37.07
10466;BME280;5280;42.600;23.556;2023-08-17T08:57:37;93481.28;;;30.54;36.55
10466;BME280;5280;42.600;23.556;2023-08-17T09:00:04;93455.09;;;30.53;36.12
10466;BME280;5280;42.600;23.556;2023-08-17T09:02:33;93475.78;;;30.77;36.20
10466;BME280;5280;42.600;23.556;2023-08-17T09:05:02;93480.72;;;30.92;35.24
10466;BME280;5280;42.600;23.556;2023-08-17T09:07:30;93428.94;;;30.68;35.20
10466;BME280;5280;42.600;23.556;2023-08-17T09:09:59;93478.47;;;30.89;35.60
10466;BME280;5280;42.600;23.556;2023-08-17T09:12:26;93470.16;;;30.84;36.39
10466;BME280;5280;42.600;23.556;2023-08-17T09:14:53;93457.34;;;30.84;35.69
10466;BME280;5280;42.600;23.556;2023-08-17T09:17:23;93462.78;;;30.96;35.04
10466;BME280;5280;42.600;23.556;2023-08-17T09:19:50;93467.31;;;31.02;35.23
10466;BME280;5280;42.600;23.556;2023-08-17T09:22:23;93460.50;;;31.04;35.62
10466;BME280;5280;42.600;23.556;2023-08-17T09:24:50;93455.03;;;31.04;34.95
10466;BME280;5280;42.600;23.556;2023-08-17T09:27:18;93455.03;;;31.04;35.59
10466;BME280;5280;42.600;23.556;2023-08-17T09:29:44;93396.97;;;30.52;34.90
10466;BME280;5280;42.600;23.556;2023-08-17T09:32:14;93456.25;;;30.97;35.03
10466;BME280;5280;42.600;23.556;2023-08-17T09:34:43;93449.84;;;31.03;34.54
10466;BME280;5280;42.600;23.556;2023-08-17T09:37:11;93441.69;;;31.19;35.08
10466;BME280;5280;42.600;23.556;2023-08-17T09:39:39;93442.34;;;31.27;34.35
10466;BME280;5280;42.600;23.556;2023-08-17T09:42:06;93447.75;;;31.38;33.56
10466;BME280;5280;42.600;23.556;2023-08-17T09:44:33;93454.38;;;31.42;33.82
10466;BME280;5280;42.600;23.556;2023-08-17T09:47:01;93447.50;;;31.40;34.43
10466;BME280;5280;42.600;23.556;2023-08-17T09:49:31;93431.63;;;31.37;33.65
10466;BME280;5280;42.600;23.556;2023-08-17T09:52:01;93438.84;;;31.59;33.65
10466;BME280;5280;42.600;23.556;2023-08-17T09:54:30;93418.69;;;31.49;32.98
10466;BME280;5280;42.600;23.556;2023-08-17T09:56:58;93437.06;;;31.53;32.41
10466;BME280;5280;42.600;23.556;2023-08-17T09:59:25;93430.28;;;31.56;33.00
10466;BME280;5280;42.600;23.556;2023-08-17T10:01:52;93424.00;;;31.55;32.16
10466;BME280;5280;42.600;23.556;2023-08-17T10:04:21;93412.34;;;31.60;32.64
10466;BME280;5280;42.600;23.556;2023-08-17T10:06:50;93429.91;;;31.81;31.73
10466;BME280;5280;42.600;23.556;2023-08-17T10:09:24;93432.03;;;31.79;31.97
10466;BME280;5280;42.600;23.556;2023-08-17T10:11:52;93422.84;;;31.85;31.98
10466;BME280;5280;42.600;23.556;2023-08-17T10:14:28;93423.59;;;31.97;31.96
10466;BME280;5280;42.600;23.556;2023-08-17T10:17:00;93412.44;;;31.82;31.84
10466;BME280;5280;42.600;23.556;2023-08-17T10:19:34;93412.84;;;31.74;31.94
10466;BME280;5280;42.600;23.556;2023-08-17T10:22:12;93406.06;;;31.76;32.63
10466;BME280;5280;42.600;23.556;2023-08-17T10:24:42;93415.56;;;31.90;32.64
10466;BME280;5280;42.600;23.556;2023-08-17T10:27:10;93408.44;;;31.89;32.84
10466;BME280;5280;42.600;23.556;2023-08-17T10:29:40;93400.00;;;31.91;32.61
10466;BME280;5280;42.600;23.556;2023-08-17T10:32:08;93415.13;;;32.15;33.39
10466;BME280;5280;42.600;23.556;2023-08-17T10:34:36;93416.34;;;32.24;32.05
10466;BME280;5280;42.600;23.556;2023-08-17T10:37:04;93396.00;;;32.15;32.76
10466;BME280;5280;42.600;23.556;2023-08-17T10:39:32;93383.59;;;31.91;32.30
10466;BME280;5280;42.600;23.556;2023-08-17T10:42:00;93417.56;;;32.12;31.25
10466;BME280;5280;42.600;23.556;2023-08-17T10:44:49;93415.38;;;32.14;31.44
10466;BME280;5280;42.600;23.556;2023-08-17T10:47:23;93405.91;;;32.04;31.93
10466;BME280;5280;42.600;23.556;2023-08-17T10:49:51;93399.97;;;32.08;32.02
10466;BME280;5280;42.600;23.556;2023-08-17T10:52:30;93395.66;;;31.95;31.51
10466;BME280;5280;42.600;23.556;2023-08-17T10:55:00;93397.50;;;31.89;32.27
10466;BME280;5280;42.600;23.556;2023-08-17T10:57:34;93404.03;;;31.88;31.76
10466;BME280;5280;42.600;23.556;2023-08-17T11:00:16;93384.34;;;31.86;31.98
10466;BME280;5280;42.600;23.556;2023-08-17T11:02:46;93401.41;;;31.77;33.27
10466;BME280;5280;42.600;23.556;2023-08-17T11:05:34;93376.50;;;31.73;32.98
10466;BME280;5280;42.600;23.556;2023-08-17T11:08:01;93394.69;;;31.84;34.27
10466;BME280;5280;42.600;23.556;2023-08-17T11:10:29;93346.53;;;31.61;36.52
10466;BME280;5280;42.600;23.556;2023-08-17T11:12:56;93377.81;;;31.71;36.95
10466;BME280;5280;42.600;23.556;2023-08-17T11:15:26;93386.44;;;31.63;33.14
10466;BME280;5280;42.600;23.556;2023-08-17T11:18:03;93393.09;;;31.55;32.56
10466;BME280;5280;42.600;23.556;2023-08-17T11:20:30;93377.38;;;31.45;32.46
10466;BME280;5280;42.600;23.556;2023-08-17T11:22:57;93366.69;;;31.44;34.58
10466;BME280;5280;42.600;23.556;2023-08-17T11:25:25;93360.81;;;31.35;36.87
10466;BME280;5280;42.600;23.556;2023-08-17T11:27:52;93372.34;;;31.37;37.61
10466;BME280;5280;42.600;23.556;2023-08-17T11:30:20;93358.50;;;31.27;37.98
10466;BME280;5280;42.600;23.556;2023-08-17T11:32:49;93370.16;;;31.39;37.72
10466;BME280;5280;42.600;23.556;2023-08-17T11:35:16;93356.63;;;31.28;38.71
10466;BME280;5280;42.600;23.556;2023-08-17T11:37:43;93338.06;;;31.13;38.70
10466;BME280;5280;42.600;23.556;2023-08-17T11:40:10;93376.06;;;31.31;39.00
10466;BME280;5280;42.600;23.556;2023-08-17T11:42:38;93383.75;;;31.34;35.21
10466;BME280;5280;42.600;23.556;2023-08-17T11:45:05;93375.31;;;31.36;38.12
10466;BME280;5280;42.600;23.556;2023-08-17T11:47:34;93371.31;;;31.43;39.17
10466;BME280;5280;42.600;23.556;2023-08-17T11:50:03;93363.88;;;31.39;39.61
10466;BME280;5280;42.600;23.556;2023-08-17T11:52:30;93358.25;;;31.29;40.13
10466;BME280;5280;42.600;23.556;2023-08-17T11:54:58;93366.13;;;31.42;40.38
10466;BME280;5280;42.600;23.556;2023-08-17T11:57:25;93366.53;;;31.34;39.89
10466;BME280;5280;42.600;23.556;2023-08-17T11:59:52;93364.53;;;31.29;39.87
10466;BME280;5280;42.600;23.556;2023-08-17T12:02:20;93366.78;;;31.32;40.20
10466;BME280;5280;42.600;23.556;2023-08-17T12:04:48;93361.81;;;31.29;40.28
10466;BME280;5280;42.600;23.556;2023-08-17T12:07:16;93370.28;;;31.28;39.91
10466;BME280;5280;42.600;23.556;2023-08-17T12:09:43;93364.72;;;31.23;40.07
10466;BME280;5280;42.600;23.556;2023-08-17T12:12:11;93355.19;;;31.08;40.20
10466;BME280;5280;42.600;23.556;2023-08-17T12:14:41;93352.63;;;31.02;40.29
10466;BME280;5280;42.600;23.556;2023-08-17T12:17:13;93349.91;;;31.02;40.35
10466;BME280;5280;42.600;23.556;2023-08-17T12:19:40;93361.66;;;30.91;40.76
10466;BME280;5280;42.600;23.556;2023-08-17T12:22:07;93355.13;;;30.92;40.36
10466;BME280;5280;42.600;23.556;2023-08-17T12:24:35;93351.44;;;30.98;40.05
10466;BME280;5280;42.600;23.556;2023-08-17T12:27:02;93285.19;;;30.57;39.91
10466;BME280;5280;42.600;23.556;2023-08-17T12:29:29;93366.28;;;30.90;40.75
10466;BME280;5280;42.600;23.556;2023-08-17T12:31:56;93342.97;;;30.83;40.56
10466;BME280;5280;42.600;23.556;2023-08-17T12:34:23;93335.63;;;30.55;41.01
10466;BME280;5280;42.600;23.556;2023-08-17T12:36:50;93356.34;;;30.67;41.87
10466;BME280;5280;42.600;23.556;2023-08-17T12:39:17;93357.81;;;30.58;41.81
10466;BME280;5280;42.600;23.556;2023-08-17T12:41:45;93344.63;;;30.55;42.18
10466;BME280;5280;42.600;23.556;2023-08-17T12:44:11;93328.31;;;30.44;42.37
10466;BME280;5280;42.600;23.556;2023-08-17T12:46:39;93347.66;;;30.70;41.54
10466;BME280;5280;42.600;23.556;2023-08-17T12:49:06;93298.75;;;30.52;41.54
10466;BME280;5280;42.600;23.556;2023-08-17T12:51:33;93351.25;;;30.88;42.53
10466;BME280;5280;42.600;23.556;2023-08-17T12:54:00;93350.84;;;30.96;41.92
10466;BME280;5280;42.600;23.556;2023-08-17T12:56:26;93347.81;;;31.09;40.33
10466;BME280;5280;42.600;23.556;2023-08-17T12:58:54;93357.28;;;31.18;39.04
10466;BME280;5280;42.600;23.556;2023-08-17T13:01:21;93350.81;;;31.24;39.95
10466;BME280;5280;42.600;23.556;2023-08-17T13:03:50;93347.50;;;31.22;38.96